Newbury, NH

11:09 AM EDT on October 21, 2014 (GMT -0400)
Lake Sunapee (Edgemont) | Change Station
CLOSE
Current Station
Personal Weather Station
Location: Newbury, NH
Elevation: 1099 ft
Nearby Weather Stations

Elev 1099 ft 43.34 °N, 72.06 °W | Updated 10 minutes ago

Overcast
Overcast
45.7 °F
Feels Like 46 °F
N
0.0
Wind Variable Wind from SW
Gusts 5.0 mph

Today
High -- | Low -- °F
--% Chance of Precip.
Yesterday
High -- | Low -- °F
Precip. -- in
7:09 AM 5:55 PM
Waning Crescent, 5% visible
Pressure 30.00 in
Visibility 3.0 miles
Clouds Mostly Cloudy 2600 ft
Overcast 3400 ft
Windchill 46 °F
Dew Point 43 °F
Humidity 89%
Rainfall 0.02 in
Snow Depth Not available.
UV 1 out of 12
Pollen .10 out of 12
Air Quality Not available.
Flu Activity Local Activity
SPECI KVSF 211451Z AUTO 00000KT 3SM -RA BR BKN026 OVC034 08/07 A3000 RMK AO2 P0001

More Conditions Fewer Conditions

Pressure 30.00 in
Visibility 3.0 miles
Clouds Mostly Cloudy 2600 ft
Overcast 3400 ft
Windchill 46 °F
Dew Point 43 °F
Humidity 89%
Rainfall 0.02 in
Snow Depth Not available.
UV 1 out of 12
Pollen .10 out of 12
Air Quality Not available.
Flu Activity Local Activity
SPECI KVSF 211451Z AUTO 00000KT 3SM -RA BR BKN026 OVC034 08/07 A3000 RMK AO2 P0001

More Conditions Fewer Conditions

10-Day Weather Forecast

Almanac

Astronomy

Oct. 21, 2014 Rise Set
Actual Time 7:09 AM EDT 5:55 PM EDT
Civil Twilight 6:40 AM EDT 6:24 PM EDT
Nautical Twilight 6:07 AM EDT 6:57 PM EDT
Astronomical Twilight 5:34 AM EDT 7:30 PM EDT
Moon 4:47 AM EDT 4:51 PM EDT
Length of Visible Light 11h 44m
Length of Day
10h 46m
Tomorrow will be 2m 48s shorter.
Waning Crescent, 5% of the Moon is Illuminated
Today
Waning Crescent
Oct 23
New
Oct 30
First Quarter
Nov 6
Full
Nov 14
Last Quarter

Today's Extremes

State Highs State Lows

Community

WunderPhotos

Upload Photos

1,763,682 photos uploaded!

WunderBlogs® & News

By Dr. Jeff Masters
Director of Meteorology, Weather Underground
By Kari Strenfel
Meteorologist, Weather Underground
By Christopher C. Burt
Weather Historian, Weather Underground
October 21, 2014
October 21, 2014
October 21, 2014

Nearby

Air Quality

  Air Quality AQ Index Pollutant
Tuesday Good
PM2.5
Tuesday Good
OZONE
Wednesday Good
PM2.5
Wednesday Good
OZONE

Snow Depth

Station Depth Elevation
No new snow has been reported.

Earthquake Activity

City Distance Mag. Time & Date
No recent earthquake activity has been reported nearby.
Minimum magnitude displayed is 2.5.

Coastal Water Temperatures

Place Temperature
No Stations Reporting

Nearby Weather Stations